sensor_id;sensor_type;location;lat;lon;timestamp;P1;durP1;ratioP1;P2;durP2;ratioP2
74328;SDS011;62745;51.060;13.786;2023-09-19T00:00:33;6.95;;;3.13;;
74328;SDS011;62745;51.060;13.786;2023-09-19T00:02:59;6.57;;;3.58;;
74328;SDS011;62745;51.060;13.786;2023-09-19T00:05:28;9.15;;;3.65;;
74328;SDS011;62745;51.060;13.786;2023-09-19T00:10:25;10.25;;;3.10;;
74328;SDS011;62745;51.060;13.786;2023-09-19T00:12:52;8.00;;;3.28;;
74328;SDS011;62745;51.060;13.786;2023-09-19T00:15:24;6.95;;;3.53;;
74328;SDS011;62745;51.060;13.786;2023-09-19T00:17:55;7.05;;;3.40;;
74328;SDS011;62745;51.060;13.786;2023-09-19T00:20:20;8.15;;;3.17;;
74328;SDS011;62745;51.060;13.786;2023-09-19T00:22:48;8.23;;;3.60;;
74328;SDS011;62745;51.060;13.786;2023-09-19T00:25:17;6.22;;;2.92;;
74328;SDS011;62745;51.060;13.786;2023-09-19T00:27:42;6.13;;;3.03;;
74328;SDS011;62745;51.060;13.786;2023-09-19T00:30:11;7.65;;;3.20;;
74328;SDS011;62745;51.060;13.786;2023-09-19T00:32:55;10.30;;;3.78;;
74328;SDS011;62745;51.060;13.786;2023-09-19T00:35:20;6.80;;;3.60;;
74328;SDS011;62745;51.060;13.786;2023-09-19T00:37:49;8.40;;;3.60;;
74328;SDS011;62745;51.060;13.786;2023-09-19T00:40:15;6.85;;;3.80;;
74328;SDS011;62745;51.060;13.786;2023-09-19T00:42:42;12.15;;;3.53;;
74328;SDS011;62745;51.060;13.786;2023-09-19T00:45:08;6.13;;;3.50;;
74328;SDS011;62745;51.060;13.786;2023-09-19T00:47:36;6.28;;;3.40;;
74328;SDS011;62745;51.060;13.786;2023-09-19T00:50:04;8.18;;;3.15;;
74328;SDS011;62745;51.060;13.786;2023-09-19T00:52:32;11.38;;;5.05;;
74328;SDS011;62745;51.060;13.786;2023-09-19T00:55:04;7.55;;;3.78;;
74328;SDS011;62745;51.060;13.786;2023-09-19T00:57:33;8.35;;;3.60;;
74328;SDS011;62745;51.060;13.786;2023-09-19T01:00:00;6.15;;;3.45;;
74328;SDS011;62745;51.060;13.786;2023-09-19T01:02:30;9.00;;;3.47;;
74328;SDS011;62745;51.060;13.786;2023-09-19T01:04:56;7.38;;;3.75;;
74328;SDS011;62745;51.060;13.786;2023-09-19T01:07:22;6.38;;;3.72;;
74328;SDS011;62745;51.060;13.786;2023-09-19T01:09:48;8.68;;;3.80;;
74328;SDS011;62745;51.060;13.786;2023-09-19T01:12:16;7.80;;;4.20;;
74328;SDS011;62745;51.060;13.786;2023-09-19T01:15:03;8.63;;;3.95;;
74328;SDS011;62745;51.060;13.786;2023-09-19T01:17:46;6.78;;;3.67;;
74328;SDS011;62745;51.060;13.786;2023-09-19T01:20:30;13.90;;;4.70;;
74328;SDS011;62745;51.060;13.786;2023-09-19T01:26:06;7.35;;;3.90;;
74328;SDS011;62745;51.060;13.786;2023-09-19T01:31:23;9.95;;;5.00;;
74328;SDS011;62745;51.060;13.786;2023-09-19T01:33:53;8.82;;;3.88;;
74328;SDS011;62745;51.060;13.786;2023-09-19T01:36:22;8.90;;;3.80;;
74328;SDS011;62745;51.060;13.786;2023-09-19T01:38:49;8.50;;;3.28;;
74328;SDS011;62745;51.060;13.786;2023-09-19T01:41:16;12.88;;;3.42;;
74328;SDS011;62745;51.060;13.786;2023-09-19T01:43:48;7.07;;;3.42;;
74328;SDS011;62745;51.060;13.786;2023-09-19T01:46:15;6.18;;;3.25;;
74328;SDS011;62745;51.060;13.786;2023-09-19T01:48:54;6.90;;;3.47;;
74328;SDS011;62745;51.060;13.786;2023-09-19T01:51:43;6.95;;;3.38;;
74328;SDS011;62745;51.060;13.786;2023-09-19T01:54:18;10.95;;;4.35;;
74328;SDS011;62745;51.060;13.786;2023-09-19T01:56:59;8.20;;;3.97;;
74328;SDS011;62745;51.060;13.786;2023-09-19T01:59:47;6.88;;;3.60;;
74328;SDS011;62745;51.060;13.786;2023-09-19T02:02:16;10.07;;;3.67;;
74328;SDS011;62745;51.060;13.786;2023-09-19T02:04:42;7.15;;;3.70;;
74328;SDS011;62745;51.060;13.786;2023-09-19T02:07:08;5.82;;;3.35;;
74328;SDS011;62745;51.060;13.786;2023-09-19T02:09:33;6.95;;;3.83;;
74328;SDS011;62745;51.060;13.786;2023-09-19T02:12:00;8.70;;;3.58;;
74328;SDS011;62745;51.060;13.786;2023-09-19T02:14:29;6.88;;;3.35;;
74328;SDS011;62745;51.060;13.786;2023-09-19T02:16:54;8.18;;;4.05;;
74328;SDS011;62745;51.060;13.786;2023-09-19T02:19:20;8.07;;;3.92;;
74328;SDS011;62745;51.060;13.786;2023-09-19T02:21:46;9.18;;;4.22;;
74328;SDS011;62745;51.060;13.786;2023-09-19T02:24:13;7.57;;;3.65;;
74328;SDS011;62745;51.060;13.786;2023-09-19T02:26:40;9.50;;;4.13;;
74328;SDS011;62745;51.060;13.786;2023-09-19T02:29:05;9.52;;;4.32;;
74328;SDS011;62745;51.060;13.786;2023-09-19T02:31:31;6.78;;;3.70;;
74328;SDS011;62745;51.060;13.786;2023-09-19T02:33:56;7.95;;;3.70;;
74328;SDS011;62745;51.060;13.786;2023-09-19T02:36:22;6.00;;;2.70;;
74328;SDS011;62745;51.060;13.786;2023-09-19T02:38:48;6.55;;;3.30;;
74328;SDS011;62745;51.060;13.786;2023-09-19T02:41:14;10.43;;;3.35;;
74328;SDS011;62745;51.060;13.786;2023-09-19T02:43:39;6.30;;;3.07;;
74328;SDS011;62745;51.060;13.786;2023-09-19T02:46:04;7.33;;;3.40;;
74328;SDS011;62745;51.060;13.786;2023-09-19T02:48:30;9.27;;;3.50;;
74328;SDS011;62745;51.060;13.786;2023-09-19T02:50:57;6.55;;;3.53;;
74328;SDS011;62745;51.060;13.786;2023-09-19T02:53:22;6.28;;;3.25;;
74328;SDS011;62745;51.060;13.786;2023-09-19T02:55:49;8.25;;;4.30;;
74328;SDS011;62745;51.060;13.786;2023-09-19T02:58:14;6.75;;;3.67;;
74328;SDS011;62745;51.060;13.786;2023-09-19T03:00:40;11.68;;;3.90;;
74328;SDS011;62745;51.060;13.786;2023-09-19T03:03:07;6.88;;;3.88;;
74328;SDS011;62745;51.060;13.786;2023-09-19T03:05:33;7.20;;;3.22;;
74328;SDS011;62745;51.060;13.786;2023-09-19T03:07:59;7.57;;;3.10;;
74328;SDS011;62745;51.060;13.786;2023-09-19T03:10:26;6.32;;;3.22;;
74328;SDS011;62745;51.060;13.786;2023-09-19T03:12:52;7.63;;;3.33;;
74328;SDS011;62745;51.060;13.786;2023-09-19T03:15:18;5.57;;;2.70;;
74328;SDS011;62745;51.060;13.786;2023-09-19T03:17:44;8.23;;;3.72;;
74328;SDS011;62745;51.060;13.786;2023-09-19T03:20:10;8.77;;;3.90;;
74328;SDS011;62745;51.060;13.786;2023-09-19T03:22:38;7.88;;;3.70;;
74328;SDS011;62745;51.060;13.786;2023-09-19T03:25:04;8.25;;;3.72;;
74328;SDS011;62745;51.060;13.786;2023-09-19T03:27:33;5.72;;;3.17;;
74328;SDS011;62745;51.060;13.786;2023-09-19T03:29:59;6.55;;;3.47;;
74328;SDS011;62745;51.060;13.786;2023-09-19T03:32:24;6.73;;;3.10;;
74328;SDS011;62745;51.060;13.786;2023-09-19T03:34:49;9.43;;;3.30;;
74328;SDS011;62745;51.060;13.786;2023-09-19T03:37:15;5.77;;;3.10;;
74328;SDS011;62745;51.060;13.786;2023-09-19T03:39:40;6.50;;;2.90;;
74328;SDS011;62745;51.060;13.786;2023-09-19T03:42:05;4.73;;;2.33;;
74328;SDS011;62745;51.060;13.786;2023-09-19T03:44:32;7.03;;;2.75;;
74328;SDS011;62745;51.060;13.786;2023-09-19T03:46:57;4.68;;;2.55;;
74328;SDS011;62745;51.060;13.786;2023-09-19T03:49:22;5.65;;;2.20;;
74328;SDS011;62745;51.060;13.786;2023-09-19T03:51:48;6.53;;;2.43;;
74328;SDS011;62745;51.060;13.786;2023-09-19T03:54:13;5.70;;;2.05;;
74328;SDS011;62745;51.060;13.786;2023-09-19T03:56:39;5.85;;;2.00;;
74328;SDS011;62745;51.060;13.786;2023-09-19T03:59:04;6.87;;;2.20;;
74328;SDS011;62745;51.060;13.786;2023-09-19T04:01:29;4.25;;;1.45;;
74328;SDS011;62745;51.060;13.786;2023-09-19T04:03:57;5.90;;;2.30;;
74328;SDS011;62745;51.060;13.786;2023-09-19T04:06:22;5.47;;;1.60;;
74328;SDS011;62745;51.060;13.786;2023-09-19T04:08:47;7.28;;;1.98;;
74328;SDS011;62745;51.060;13.786;2023-09-19T04:11:13;4.00;;;1.10;;
74328;SDS011;62745;51.060;13.786;2023-09-19T04:13:39;3.58;;;1.58;;
74328;SDS011;62745;51.060;13.786;2023-09-19T04:16:05;4.60;;;1.38;;
74328;SDS011;62745;51.060;13.786;2023-09-19T04:18:31;6.43;;;1.67;;
74328;SDS011;62745;51.060;13.786;2023-09-19T04:20:58;3.70;;;1.50;;
74328;SDS011;62745;51.060;13.786;2023-09-19T04:23:24;3.40;;;1.25;;
74328;SDS011;62745;51.060;13.786;2023-09-19T04:25:50;5.65;;;1.40;;
74328;SDS011;62745;51.060;13.786;2023-09-19T04:28:16;5.50;;;1.50;;
74328;SDS011;62745;51.060;13.786;2023-09-19T04:30:41;3.88;;;1.25;;
74328;SDS011;62745;51.060;13.786;2023-09-19T04:33:06;3.47;;;1.27;;
74328;SDS011;62745;51.060;13.786;2023-09-19T04:35:32;5.60;;;1.73;;
74328;SDS011;62745;51.060;13.786;2023-09-19T04:37:58;3.00;;;1.30;;
74328;SDS011;62745;51.060;13.786;2023-09-19T04:40:24;3.65;;;1.35;;
74328;SDS011;62745;51.060;13.786;2023-09-19T04:42:54;4.93;;;1.33;;
74328;SDS011;62745;51.060;13.786;2023-09-19T04:45:24;3.58;;;1.30;;
74328;SDS011;62745;51.060;13.786;2023-09-19T04:47:49;3.97;;;1.10;;
74328;SDS011;62745;51.060;13.786;2023-09-19T04:50:14;3.33;;;1.30;;
74328;SDS011;62745;51.060;13.786;2023-09-19T04:52:42;4.13;;;1.38;;
74328;SDS011;62745;51.060;13.786;2023-09-19T04:55:09;3.72;;;1.13;;
74328;SDS011;62745;51.060;13.786;2023-09-19T04:57:47;4.05;;;1.35;;
74328;SDS011;62745;51.060;13.786;2023-09-19T05:00:15;3.08;;;1.30;;
74328;SDS011;62745;51.060;13.786;2023-09-19T05:02:44;3.35;;;1.20;;
74328;SDS011;62745;51.060;13.786;2023-09-19T05:05:10;3.45;;;1.20;;
74328;SDS011;62745;51.060;13.786;2023-09-19T05:07:36;4.68;;;1.45;;
74328;SDS011;62745;51.060;13.786;2023-09-19T05:10:02;3.20;;;1.38;;
74328;SDS011;62745;51.060;13.786;2023-09-19T05:12:32;6.40;;;1.50;;
74328;SDS011;62745;51.060;13.786;2023-09-19T05:14:59;3.50;;;1.70;;
74328;SDS011;62745;51.060;13.786;2023-09-19T05:17:24;5.10;;;1.73;;
74328;SDS011;62745;51.060;13.786;2023-09-19T05:19:49;3.85;;;1.40;;
74328;SDS011;62745;51.060;13.786;2023-09-19T05:22:15;5.82;;;1.70;;
74328;SDS011;62745;51.060;13.786;2023-09-19T05:24:40;2.90;;;1.30;;
74328;SDS011;62745;51.060;13.786;2023-09-19T05:27:05;6.20;;;1.50;;
74328;SDS011;62745;51.060;13.786;2023-09-19T05:29:32;5.07;;;1.40;;
74328;SDS011;62745;51.060;13.786;2023-09-19T05:31:58;7.40;;;1.63;;
74328;SDS011;62745;51.060;13.786;2023-09-19T05:34:23;3.85;;;1.60;;
74328;SDS011;62745;51.060;13.786;2023-09-19T05:36:53;4.47;;;1.55;;
74328;SDS011;62745;51.060;13.786;2023-09-19T05:39:19;4.07;;;1.50;;
74328;SDS011;62745;51.060;13.786;2023-09-19T05:41:45;4.63;;;1.50;;
74328;SDS011;62745;51.060;13.786;2023-09-19T05:44:12;3.58;;;1.30;;
74328;SDS011;62745;51.060;13.786;2023-09-19T05:46:39;4.38;;;1.23;;
74328;SDS011;62745;51.060;13.786;2023-09-19T05:49:04;3.60;;;1.47;;
74328;SDS011;62745;51.060;13.786;2023-09-19T05:51:29;4.13;;;1.50;;
74328;SDS011;62745;51.060;13.786;2023-09-19T05:53:54;4.27;;;1.33;;
74328;SDS011;62745;51.060;13.786;2023-09-19T05:56:20;5.97;;;1.93;;
74328;SDS011;62745;51.060;13.786;2023-09-19T05:58:45;7.10;;;1.83;;
74328;SDS011;62745;51.060;13.786;2023-09-19T06:01:11;4.63;;;1.47;;
74328;SDS011;62745;51.060;13.786;2023-09-19T06:03:36;6.23;;;1.47;;
74328;SDS011;62745;51.060;13.786;2023-09-19T06:06:01;4.85;;;1.25;;
74328;SDS011;62745;51.060;13.786;2023-09-19T06:08:27;5.53;;;1.90;;
74328;SDS011;62745;51.060;13.786;2023-09-19T06:10:53;5.82;;;1.45;;
74328;SDS011;62745;51.060;13.786;2023-09-19T06:13:19;4.18;;;1.25;;
74328;SDS011;62745;51.060;13.786;2023-09-19T06:15:44;3.45;;;1.38;;
74328;SDS011;62745;51.060;13.786;2023-09-19T06:18:11;4.38;;;1.30;;
74328;SDS011;62745;51.060;13.786;2023-09-19T06:20:42;5.25;;;1.30;;
74328;SDS011;62745;51.060;13.786;2023-09-19T06:23:09;3.67;;;1.60;;
74328;SDS011;62745;51.060;13.786;2023-09-19T06:25:34;3.70;;;1.60;;
74328;SDS011;62745;51.060;13.786;2023-09-19T06:28:00;3.65;;;1.10;;
74328;SDS011;62745;51.060;13.786;2023-09-19T06:30:29;2.83;;;1.17;;
74328;SDS011;62745;51.060;13.786;2023-09-19T06:32:59;2.90;;;1.25;;
74328;SDS011;62745;51.060;13.786;2023-09-19T06:35:25;2.53;;;1.13;;
74328;SDS011;62745;51.060;13.786;2023-09-19T06:37:52;4.45;;;1.40;;
74328;SDS011;62745;51.060;13.786;2023-09-19T06:40:17;3.40;;;1.23;;
74328;SDS011;62745;51.060;13.786;2023-09-19T06:42:44;3.05;;;1.15;;
74328;SDS011;62745;51.060;13.786;2023-09-19T06:45:15;2.85;;;1.13;;
74328;SDS011;62745;51.060;13.786;2023-09-19T06:47:47;2.97;;;1.20;;
74328;SDS011;62745;51.060;13.786;2023-09-19T06:50:19;4.25;;;1.10;;
74328;SDS011;62745;51.060;13.786;2023-09-19T06:52:47;3.72;;;1.10;;
74328;SDS011;62745;51.060;13.786;2023-09-19T06:55:15;2.78;;;1.00;;
74328;SDS011;62745;51.060;13.786;2023-09-19T06:57:41;4.20;;;1.65;;
74328;SDS011;62745;51.060;13.786;2023-09-19T07:00:08;6.03;;;1.20;;
74328;SDS011;62745;51.060;13.786;2023-09-19T07:02:40;2.42;;;1.20;;
74328;SDS011;62745;51.060;13.786;2023-09-19T07:05:26;3.60;;;1.02;;
74328;SDS011;62745;51.060;13.786;2023-09-19T07:07:56;4.25;;;1.35;;
74328;SDS011;62745;51.060;13.786;2023-09-19T07:10:25;4.28;;;1.00;;
74328;SDS011;62745;51.060;13.786;2023-09-19T07:13:02;2.50;;;0.98;;
74328;SDS011;62745;51.060;13.786;2023-09-19T07:15:29;3.00;;;1.13;;
74328;SDS011;62745;51.060;13.786;2023-09-19T07:18:04;2.88;;;1.10;;
74328;SDS011;62745;51.060;13.786;2023-09-19T07:20:30;4.15;;;1.10;;
74328;SDS011;62745;51.060;13.786;2023-09-19T07:22:57;3.17;;;1.05;;
74328;SDS011;62745;51.060;13.786;2023-09-19T07:25:24;3.65;;;0.93;;
74328;SDS011;62745;51.060;13.786;2023-09-19T07:27:50;3.72;;;1.25;;
74328;SDS011;62745;51.060;13.786;2023-09-19T07:30:16;3.47;;;1.20;;
74328;SDS011;62745;51.060;13.786;2023-09-19T07:32:41;3.55;;;1.00;;
74328;SDS011;62745;51.060;13.786;2023-09-19T07:35:07;3.00;;;1.07;;
74328;SDS011;62745;51.060;13.786;2023-09-19T07:37:32;5.75;;;1.00;;
74328;SDS011;62745;51.060;13.786;2023-09-19T07:39:59;3.97;;;1.10;;
74328;SDS011;62745;51.060;13.786;2023-09-19T07:42:25;2.70;;;0.80;;
74328;SDS011;62745;51.060;13.786;2023-09-19T07:44:52;4.22;;;0.90;;
74328;SDS011;62745;51.060;13.786;2023-09-19T07:47:18;2.30;;;0.90;;
74328;SDS011;62745;51.060;13.786;2023-09-19T07:49:46;3.35;;;0.90;;
74328;SDS011;62745;51.060;13.786;2023-09-19T07:52:12;2.55;;;0.85;;
74328;SDS011;62745;51.060;13.786;2023-09-19T07:54:38;1.95;;;0.80;;
74328;SDS011;62745;51.060;13.786;2023-09-19T07:57:03;2.03;;;0.87;;
74328;SDS011;62745;51.060;13.786;2023-09-19T07:59:29;2.50;;;0.90;;
74328;SDS011;62745;51.060;13.786;2023-09-19T08:01:54;3.30;;;0.90;;
74328;SDS011;62745;51.060;13.786;2023-09-19T08:04:20;4.97;;;0.93;;
74328;SDS011;62745;51.060;13.786;2023-09-19T08:06:45;2.73;;;0.77;;
74328;SDS011;62745;51.060;13.786;2023-09-19T08:09:10;1.63;;;0.65;;
74328;SDS011;62745;51.060;13.786;2023-09-19T08:11:37;3.90;;;1.02;;
74328;SDS011;62745;51.060;13.786;2023-09-19T08:14:04;1.60;;;0.70;;
74328;SDS011;62745;51.060;13.786;2023-09-19T08:16:30;3.13;;;0.88;;
74328;SDS011;62745;51.060;13.786;2023-09-19T08:18:56;4.45;;;0.90;;
74328;SDS011;62745;51.060;13.786;2023-09-19T08:21:22;2.13;;;0.80;;
74328;SDS011;62745;51.060;13.786;2023-09-19T08:23:48;1.55;;;0.60;;
74328;SDS011;62745;51.060;13.786;2023-09-19T08:26:14;4.30;;;0.90;;
74328;SDS011;62745;51.060;13.786;2023-09-19T08:28:39;2.80;;;0.80;;
74328;SDS011;62745;51.060;13.786;2023-09-19T08:31:08;6.72;;;0.98;;
74328;SDS011;62745;51.060;13.786;2023-09-19T08:33:34;3.10;;;0.80;;
74328;SDS011;62745;51.060;13.786;2023-09-19T08:36:00;2.60;;;0.80;;
74328;SDS011;62745;51.060;13.786;2023-09-19T08:38:26;5.07;;;1.30;;
74328;SDS011;62745;51.060;13.786;2023-09-19T08:40:58;2.10;;;1.00;;
74328;SDS011;62745;51.060;13.786;2023-09-19T08:43:25;2.20;;;0.82;;
74328;SDS011;62745;51.060;13.786;2023-09-19T08:48:30;2.72;;;0.75;;
74328;SDS011;62745;51.060;13.786;2023-09-19T08:51:05;3.40;;;0.85;;
74328;SDS011;62745;51.060;13.786;2023-09-19T08:56:16;4.53;;;0.90;;
74328;SDS011;62745;51.060;13.786;2023-09-19T08:58:48;3.40;;;0.88;;
74328;SDS011;62745;51.060;13.786;2023-09-19T09:01:18;3.85;;;1.02;;
74328;SDS011;62745;51.060;13.786;2023-09-19T09:03:49;3.00;;;1.00;;
74328;SDS011;62745;51.060;13.786;2023-09-19T09:06:17;3.45;;;0.98;;
74328;SDS011;62745;51.060;13.786;2023-09-19T09:08:45;2.72;;;0.90;;
74328;SDS011;62745;51.060;13.786;2023-09-19T09:11:11;2.38;;;0.90;;
74328;SDS011;62745;51.060;13.786;2023-09-19T09:13:37;2.63;;;1.10;;
74328;SDS011;62745;51.060;13.786;2023-09-19T09:16:04;1.52;;;0.65;;
74328;SDS011;62745;51.060;13.786;2023-09-19T09:18:29;2.95;;;1.00;;
74328;SDS011;62745;51.060;13.786;2023-09-19T09:20:55;2.10;;;0.90;;
74328;SDS011;62745;51.060;13.786;2023-09-19T09:23:21;4.93;;;1.27;;
74328;SDS011;62745;51.060;13.786;2023-09-19T09:25:50;1.83;;;0.75;;
74328;SDS011;62745;51.060;13.786;2023-09-19T09:28:27;4.50;;;1.17;;
74328;SDS011;62745;51.060;13.786;2023-09-19T09:30:54;2.88;;;0.80;;
74328;SDS011;62745;51.060;13.786;2023-09-19T09:33:20;2.15;;;0.80;;
74328;SDS011;62745;51.060;13.786;2023-09-19T09:35:56;2.70;;;0.80;;
74328;SDS011;62745;51.060;13.786;2023-09-19T09:38:29;4.13;;;0.88;;
74328;SDS011;62745;51.060;13.786;2023-09-19T09:41:09;2.47;;;0.98;;
74328;SDS011;62745;51.060;13.786;2023-09-19T09:51:38;3.60;;;1.08;;
74328;SDS011;62745;51.060;13.786;2023-09-19T09:54:14;2.10;;;0.80;;
74328;SDS011;62745;51.060;13.786;2023-09-19T09:56:56;3.58;;;0.75;;
74328;SDS011;62745;51.060;13.786;2023-09-19T09:59:45;2.67;;;1.30;;
74328;SDS011;62745;51.060;13.786;2023-09-19T10:02:16;3.33;;;1.10;;
74328;SDS011;62745;51.060;13.786;2023-09-19T10:04:50;3.67;;;1.00;;
74328;SDS011;62745;51.060;13.786;2023-09-19T10:07:34;1.90;;;0.70;;
74328;SDS011;62745;51.060;13.786;2023-09-19T10:10:06;2.42;;;0.80;;
74328;SDS011;62745;51.060;13.786;2023-09-19T10:12:42;2.55;;;0.90;;
74328;SDS011;62745;51.060;13.786;2023-09-19T10:15:08;3.40;;;0.90;;
74328;SDS011;62745;51.060;13.786;2023-09-19T10:17:36;2.33;;;0.75;;
74328;SDS011;62745;51.060;13.786;2023-09-19T10:20:02;2.20;;;0.90;;
74328;SDS011;62745;51.060;13.786;2023-09-19T10:22:34;2.08;;;0.90;;
74328;SDS011;62745;51.060;13.786;2023-09-19T10:25:01;2.47;;;0.80;;
74328;SDS011;62745;51.060;13.786;2023-09-19T10:27:30;2.30;;;0.70;;
74328;SDS011;62745;51.060;13.786;2023-09-19T10:30:02;3.35;;;0.90;;
74328;SDS011;62745;51.060;13.786;2023-09-19T10:32:34;5.95;;;1.10;;
74328;SDS011;62745;51.060;13.786;2023-09-19T10:35:00;2.80;;;0.70;;
74328;SDS011;62745;51.060;13.786;2023-09-19T10:37:27;2.92;;;0.90;;
74328;SDS011;62745;51.060;13.786;2023-09-19T10:42:23;3.15;;;0.93;;
74328;SDS011;62745;51.060;13.786;2023-09-19T10:44:53;3.60;;;1.05;;
74328;SDS011;62745;51.060;13.786;2023-09-19T10:47:20;2.38;;;0.80;;
74328;SDS011;62745;51.060;13.786;2023-09-19T10:49:49;2.28;;;0.82;;
74328;SDS011;62745;51.060;13.786;2023-09-19T10:52:15;2.00;;;0.80;;
74328;SDS011;62745;51.060;13.786;2023-09-19T10:54:46;2.25;;;0.82;;
74328;SDS011;62745;51.060;13.786;2023-09-19T10:57:23;3.33;;;0.80;;
74328;SDS011;62745;51.060;13.786;2023-09-19T11:00:07;2.05;;;0.77;;
74328;SDS011;62745;51.060;13.786;2023-09-19T11:06:05;2.60;;;0.93;;
74328;SDS011;62745;51.060;13.786;2023-09-19T11:08:57;3.33;;;1.00;;
74328;SDS011;62745;51.060;13.786;2023-09-19T11:16:39;3.50;;;0.90;;
74328;SDS011;62745;51.060;13.786;2023-09-19T11:19:04;2.53;;;0.95;;
74328;SDS011;62745;51.060;13.786;2023-09-19T11:26:47;4.05;;;1.27;;
74328;SDS011;62745;51.060;13.786;2023-09-19T11:29:29;4.43;;;1.08;;
74328;SDS011;62745;51.060;13.786;2023-09-19T11:31:56;2.47;;;0.95;;
74328;SDS011;62745;51.060;13.786;2023-09-19T11:39:39;3.85;;;1.15;;
74328;SDS011;62745;51.060;13.786;2023-09-19T11:48:10;3.83;;;1.10;;
74328;SDS011;62745;51.060;13.786;2023-09-19T11:50:38;3.17;;;1.30;;
74328;SDS011;62745;51.060;13.786;2023-09-19T11:53:08;4.13;;;1.30;;
74328;SDS011;62745;51.060;13.786;2023-09-19T11:55:37;4.85;;;1.45;;
74328;SDS011;62745;51.060;13.786;2023-09-19T11:58:03;3.45;;;1.10;;
74328;SDS011;62745;51.060;13.786;2023-09-19T12:00:30;3.10;;;1.50;;
74328;SDS011;62745;51.060;13.786;2023-09-19T12:02:56;3.50;;;1.02;;
74328;SDS011;62745;51.060;13.786;2023-09-19T12:05:30;3.22;;;1.00;;
74328;SDS011;62745;51.060;13.786;2023-09-19T12:07:58;2.65;;;1.00;;
74328;SDS011;62745;51.060;13.786;2023-09-19T12:10:24;3.40;;;1.23;;
74328;SDS011;62745;51.060;13.786;2023-09-19T12:12:50;3.40;;;1.00;;
74328;SDS011;62745;51.060;13.786;2023-09-19T12:15:22;4.25;;;1.33;;
74328;SDS011;62745;51.060;13.786;2023-09-19T12:17:49;4.00;;;1.20;;
74328;SDS011;62745;51.060;13.786;2023-09-19T12:20:15;3.70;;;1.25;;
74328;SDS011;62745;51.060;13.786;2023-09-19T12:22:42;2.90;;;1.20;;
74328;SDS011;62745;51.060;13.786;2023-09-19T12:25:12;2.53;;;0.85;;
74328;SDS011;62745;51.060;13.786;2023-09-19T12:27:44;2.70;;;1.00;;
74328;SDS011;62745;51.060;13.786;2023-09-19T12:30:29;2.75;;;1.00;;
74328;SDS011;62745;51.060;13.786;2023-09-19T12:32:58;3.15;;;1.25;;
74328;SDS011;62745;51.060;13.786;2023-09-19T12:35:27;4.50;;;1.05;;
74328;SDS011;62745;51.060;13.786;2023-09-19T12:37:53;2.65;;;0.88;;
74328;SDS011;62745;51.060;13.786;2023-09-19T12:40:20;8.52;;;1.50;;
74328;SDS011;62745;51.060;13.786;2023-09-19T12:42:50;5.35;;;1.10;;
74328;SDS011;62745;51.060;13.786;2023-09-19T12:45:18;3.78;;;1.10;;
74328;SDS011;62745;51.060;13.786;2023-09-19T12:51:06;3.28;;;0.95;;
74328;SDS011;62745;51.060;13.786;2023-09-19T12:53:44;4.47;;;1.20;;
74328;SDS011;62745;51.060;13.786;2023-09-19T12:56:13;2.88;;;0.90;;
74328;SDS011;62745;51.060;13.786;2023-09-19T13:01:23;4.15;;;1.00;;
74328;SDS011;62745;51.060;13.786;2023-09-19T13:06:37;3.70;;;0.93;;
74328;SDS011;62745;51.060;13.786;2023-09-19T13:09:08;4.18;;;1.10;;
74328;SDS011;62745;51.060;13.786;2023-09-19T13:11:35;3.30;;;1.05;;
74328;SDS011;62745;51.060;13.786;2023-09-19T13:14:18;3.05;;;1.10;;
74328;SDS011;62745;51.060;13.786;2023-09-19T13:17:03;3.30;;;1.08;;
74328;SDS011;62745;51.060;13.786;2023-09-19T13:25:17;1.92;;;0.70;;
74328;SDS011;62745;51.060;13.786;2023-09-19T13:27:44;2.63;;;1.10;;
74328;SDS011;62745;51.060;13.786;2023-09-19T13:30:12;2.60;;;1.10;;
74328;SDS011;62745;51.060;13.786;2023-09-19T13:32:38;2.70;;;1.00;;
74328;SDS011;62745;51.060;13.786;2023-09-19T13:35:05;2.40;;;0.93;;
74328;SDS011;62745;51.060;13.786;2023-09-19T13:37:33;3.72;;;1.15;;
74328;SDS011;62745;51.060;13.786;2023-09-19T13:40:00;2.95;;;1.20;;
74328;SDS011;62745;51.060;13.786;2023-09-19T13:42:26;3.88;;;1.30;;
74328;SDS011;62745;51.060;13.786;2023-09-19T13:44:54;5.18;;;1.20;;
74328;SDS011;62745;51.060;13.786;2023-09-19T13:47:20;2.60;;;0.93;;
74328;SDS011;62745;51.060;13.786;2023-09-19T13:49:49;4.85;;;1.20;;
74328;SDS011;62745;51.060;13.786;2023-09-19T13:52:17;5.57;;;1.23;;
74328;SDS011;62745;51.060;13.786;2023-09-19T13:54:43;3.20;;;1.13;;
74328;SDS011;62745;51.060;13.786;2023-09-19T13:57:08;3.20;;;1.00;;
74328;SDS011;62745;51.060;13.786;2023-09-19T13:59:34;2.65;;;1.02;;
74328;SDS011;62745;51.060;13.786;2023-09-19T14:02:00;5.10;;;1.10;;
74328;SDS011;62745;51.060;13.786;2023-09-19T14:04:25;3.40;;;1.20;;
74328;SDS011;62745;51.060;13.786;2023-09-19T14:06:52;4.00;;;1.15;;
74328;SDS011;62745;51.060;13.786;2023-09-19T14:09:17;3.20;;;1.10;;
74328;SDS011;62745;51.060;13.786;2023-09-19T14:11:44;4.25;;;1.17;;
74328;SDS011;62745;51.060;13.786;2023-09-19T14:14:12;3.97;;;1.30;;
74328;SDS011;62745;51.060;13.786;2023-09-19T14:16:37;4.80;;;1.20;;
74328;SDS011;62745;51.060;13.786;2023-09-19T14:19:04;2.45;;;0.93;;
74328;SDS011;62745;51.060;13.786;2023-09-19T14:21:30;2.47;;;1.00;;
74328;SDS011;62745;51.060;13.786;2023-09-19T14:23:55;3.90;;;1.20;;
74328;SDS011;62745;51.060;13.786;2023-09-19T14:26:21;3.05;;;0.93;;
74328;SDS011;62745;51.060;13.786;2023-09-19T14:28:48;3.55;;;1.25;;
74328;SDS011;62745;51.060;13.786;2023-09-19T14:31:13;2.77;;;1.00;;
74328;SDS011;62745;51.060;13.786;2023-09-19T14:33:39;3.67;;;1.38;;
74328;SDS011;62745;51.060;13.786;2023-09-19T14:36:05;3.72;;;1.20;;
74328;SDS011;62745;51.060;13.786;2023-09-19T14:38:33;3.85;;;1.00;;
74328;SDS011;62745;51.060;13.786;2023-09-19T14:41:00;4.00;;;1.20;;
74328;SDS011;62745;51.060;13.786;2023-09-19T14:43:29;5.07;;;1.30;;
74328;SDS011;62745;51.060;13.786;2023-09-19T14:45:56;3.10;;;1.13;;
74328;SDS011;62745;51.060;13.786;2023-09-19T14:48:24;3.85;;;1.42;;
74328;SDS011;62745;51.060;13.786;2023-09-19T14:50:51;3.33;;;1.20;;
74328;SDS011;62745;51.060;13.786;2023-09-19T14:53:17;3.72;;;1.30;;
74328;SDS011;62745;51.060;13.786;2023-09-19T14:55:43;6.15;;;1.80;;
74328;SDS011;62745;51.060;13.786;2023-09-19T14:58:10;3.60;;;1.50;;
74328;SDS011;62745;51.060;13.786;2023-09-19T15:00:37;3.33;;;1.50;;
74328;SDS011;62745;51.060;13.786;2023-09-19T15:03:02;3.88;;;1.42;;
74328;SDS011;62745;51.060;13.786;2023-09-19T15:05:28;2.60;;;1.10;;
74328;SDS011;62745;51.060;13.786;2023-09-19T15:07:55;3.70;;;1.30;;
74328;SDS011;62745;51.060;13.786;2023-09-19T15:10:21;4.20;;;1.50;;
74328;SDS011;62745;51.060;13.786;2023-09-19T15:12:47;5.13;;;1.50;;
74328;SDS011;62745;51.060;13.786;2023-09-19T15:15:13;3.40;;;1.40;;
74328;SDS011;62745;51.060;13.786;2023-09-19T15:17:38;4.63;;;1.30;;
74328;SDS011;62745;51.060;13.786;2023-09-19T15:20:04;4.18;;;1.52;;
74328;SDS011;62745;51.060;13.786;2023-09-19T15:22:31;3.80;;;1.52;;
74328;SDS011;62745;51.060;13.786;2023-09-19T15:24:58;4.78;;;1.55;;
74328;SDS011;62745;51.060;13.786;2023-09-19T15:27:24;3.10;;;1.33;;
74328;SDS011;62745;51.060;13.786;2023-09-19T15:29:49;3.60;;;1.20;;
74328;SDS011;62745;51.060;13.786;2023-09-19T15:32:14;3.97;;;1.40;;
74328;SDS011;62745;51.060;13.786;2023-09-19T15:34:40;4.07;;;1.53;;
74328;SDS011;62745;51.060;13.786;2023-09-19T15:37:05;3.27;;;1.13;;
74328;SDS011;62745;51.060;13.786;2023-09-19T15:39:30;4.78;;;1.52;;
74328;SDS011;62745;51.060;13.786;2023-09-19T15:41:58;3.60;;;1.33;;